createdAt,value
2022-07-31T00:00:31.754Z,18.71
2022-07-31T00:03:08.455Z,18.61
2022-07-31T00:05:41.423Z,18.57
2022-07-31T00:08:10.391Z,18.61
2022-07-31T00:10:38.197Z,18.62
2022-07-31T00:13:05.342Z,18.62
2022-07-31T00:15:32.606Z,18.65
2022-07-31T00:18:00.433Z,18.69
2022-07-31T00:20:28.386Z,18.70
2022-07-31T00:22:57.338Z,18.57
2022-07-31T00:25:24.813Z,18.48
2022-07-31T00:27:51.913Z,18.47
2022-07-31T00:30:19.125Z,18.48
2022-07-31T00:32:46.613Z,18.51
2022-07-31T00:35:16.202Z,18.53
2022-07-31T00:37:44.565Z,18.57
2022-07-31T00:40:15.542Z,18.56
2022-07-31T00:42:43.367Z,18.53
2022-07-31T00:45:13.406Z,18.55
2022-07-31T00:47:42.294Z,18.59
2022-07-31T00:50:11.364Z,18.57
2022-07-31T00:52:38.754Z,18.58
2022-07-31T00:55:07.039Z,18.58
2022-07-31T00:57:34.418Z,18.57
2022-07-31T01:00:01.543Z,18.58
2022-07-31T01:02:29.475Z,18.57
2022-07-31T01:04:57.006Z,18.51
2022-07-31T01:07:24.456Z,18.52
2022-07-31T01:09:53.825Z,18.51
2022-07-31T01:12:39.923Z,18.45
2022-07-31T01:15:11.208Z,18.48
2022-07-31T01:17:41.532Z,18.45
2022-07-31T01:20:12.794Z,18.44
2022-07-31T01:23:30.953Z,18.47
2022-07-31T01:26:55.541Z,18.50
2022-07-31T01:29:32.494Z,18.47
2022-07-31T01:32:27.400Z,18.49
2022-07-31T01:35:09.807Z,18.50
2022-07-31T01:37:45.450Z,18.50
2022-07-31T01:40:20.447Z,18.50
2022-07-31T01:42:56.730Z,18.47
2022-07-31T01:45:27.595Z,18.48
2022-07-31T01:47:58.720Z,18.46
2022-07-31T01:50:42.447Z,18.46
2022-07-31T01:53:20.087Z,18.45
2022-07-31T01:56:02.823Z,18.45
2022-07-31T01:58:39.846Z,18.43
2022-07-31T02:01:20.675Z,18.42
2022-07-31T02:03:51.520Z,18.40
2022-07-31T02:06:26.713Z,18.38
2022-07-31T02:08:56.922Z,18.36
2022-07-31T02:11:24.961Z,18.37
2022-07-31T02:13:53.574Z,18.36
2022-07-31T02:16:25.816Z,18.35
2022-07-31T02:19:02.354Z,18.30
2022-07-31T02:21:30.382Z,18.34
2022-07-31T02:23:57.678Z,18.33
2022-07-31T02:26:27.670Z,18.29
2022-07-31T02:28:57.356Z,18.30
2022-07-31T02:31:28.592Z,18.30
2022-07-31T02:33:55.931Z,18.34
2022-07-31T02:36:25.797Z,18.28
2022-07-31T02:38:56.729Z,18.28
2022-07-31T02:41:26.144Z,18.27
2022-07-31T02:43:54.801Z,18.29
2022-07-31T02:46:25.298Z,18.26
2022-07-31T02:48:53.856Z,18.24
2022-07-31T02:51:24.399Z,18.22
2022-07-31T02:53:53.646Z,18.22
2022-07-31T02:56:25.137Z,18.23
2022-07-31T02:58:52.910Z,18.21
2022-07-31T03:01:25.206Z,18.18
2022-07-31T03:03:53.387Z,18.16
2022-07-31T03:06:20.612Z,18.17
2022-07-31T03:08:48.594Z,18.15
2022-07-31T03:11:20.082Z,18.15
2022-07-31T03:13:48.469Z,18.18
2022-07-31T03:16:17.136Z,18.18
2022-07-31T03:18:45.939Z,18.18
2022-07-31T03:21:14.195Z,18.17
2022-07-31T03:23:42.593Z,18.17
2022-07-31T03:26:17.346Z,18.17
2022-07-31T03:28:45.015Z,18.15
2022-07-31T03:31:12.749Z,18.14
2022-07-31T03:33:39.962Z,18.13
2022-07-31T03:36:09.559Z,18.13
2022-07-31T03:38:42.161Z,18.10
2022-07-31T03:41:34.934Z,18.08
2022-07-31T03:44:02.999Z,18.09
2022-07-31T03:46:30.928Z,18.10
2022-07-31T03:48:59.991Z,18.05
2022-07-31T03:51:28.810Z,18.04
2022-07-31T03:53:56.510Z,18.02
2022-07-31T03:56:51.163Z,17.98
2022-07-31T03:59:21.658Z,17.96
2022-07-31T04:01:56.853Z,17.98
2022-07-31T04:04:51.925Z,17.95
2022-07-31T04:07:20.884Z,17.93
2022-07-31T04:09:48.290Z,17.91
2022-07-31T04:12:16.544Z,17.91
2022-07-31T04:14:44.345Z,17.89
2022-07-31T04:17:12.376Z,17.87
2022-07-31T04:19:42.281Z,17.85
2022-07-31T04:22:09.957Z,17.71
2022-07-31T04:24:39.726Z,17.71
2022-07-31T04:27:26.016Z,17.75
2022-07-31T04:29:53.717Z,17.73
2022-07-31T04:32:21.684Z,17.77
2022-07-31T04:34:53.587Z,17.74
2022-07-31T04:37:22.445Z,17.71
2022-07-31T04:39:49.959Z,17.71
2022-07-31T04:42:17.562Z,17.69
2022-07-31T04:44:45.214Z,17.69
2022-07-31T04:47:14.222Z,17.67
2022-07-31T04:49:44.510Z,17.66
2022-07-31T04:52:15.101Z,17.66
2022-07-31T04:54:45.456Z,17.70
2022-07-31T04:57:18.474Z,17.73
2022-07-31T04:59:59.093Z,17.76
2022-07-31T05:02:29.143Z,17.75
2022-07-31T05:04:57.542Z,17.70
2022-07-31T05:07:31.407Z,17.64
2022-07-31T05:10:01.655Z,17.60
2022-07-31T05:12:30.771Z,17.61
2022-07-31T05:14:58.044Z,17.62
2022-07-31T05:17:26.290Z,17.58
2022-07-31T05:20:13.563Z,17.52
2022-07-31T05:23:06.743Z,17.44
2022-07-31T05:25:41.873Z,17.42
2022-07-31T05:28:09.710Z,17.39
2022-07-31T05:30:37.517Z,17.35
2022-07-31T05:33:06.879Z,17.40
2022-07-31T05:35:35.045Z,17.43
2022-07-31T05:38:02.377Z,17.42
2022-07-31T05:40:50.435Z,17.39
2022-07-31T05:43:41.332Z,17.43
2022-07-31T05:46:24.864Z,17.46
2022-07-31T05:48:52.257Z,17.49
2022-07-31T05:51:20.141Z,17.49
2022-07-31T05:53:49.406Z,17.48
2022-07-31T05:56:34.865Z,17.44
2022-07-31T05:59:07.708Z,17.47
2022-07-31T06:01:35.097Z,17.46
2022-07-31T06:04:05.545Z,17.47
2022-07-31T06:06:45.341Z,17.44
2022-07-31T06:09:12.878Z,17.45
2022-07-31T06:11:43.733Z,17.45
2022-07-31T06:14:11.071Z,17.45
2022-07-31T06:17:08.144Z,17.44
2022-07-31T06:19:38.587Z,17.43
2022-07-31T06:22:06.230Z,17.44
2022-07-31T06:24:34.240Z,17.48
2022-07-31T06:27:03.511Z,17.43
2022-07-31T06:29:41.618Z,17.42
2022-07-31T06:32:10.340Z,17.39
2022-07-31T06:34:38.074Z,17.43
2022-07-31T06:37:06.217Z,17.44
2022-07-31T06:39:55.408Z,17.45
2022-07-31T06:42:42.445Z,17.44
2022-07-31T06:45:50.941Z,17.44
2022-07-31T06:48:49.242Z,17.42
2022-07-31T06:51:32.564Z,17.46
2022-07-31T06:54:01.774Z,17.43
2022-07-31T06:56:31.208Z,17.42
2022-07-31T06:58:59.079Z,17.43
2022-07-31T07:01:27.211Z,17.37
2022-07-31T07:03:55.737Z,17.25
2022-07-31T07:06:23.593Z,17.19
2022-07-31T07:08:52.348Z,17.14
2022-07-31T07:11:21.920Z,17.13
2022-07-31T07:13:49.552Z,17.17
2022-07-31T07:16:18.185Z,17.15
2022-07-31T07:18:46.610Z,17.11
2022-07-31T07:21:15.087Z,17.08
2022-07-31T07:23:42.743Z,17.08
2022-07-31T07:26:31.415Z,17.08
2022-07-31T07:29:01.629Z,17.10
2022-07-31T07:31:30.639Z,17.14
2022-07-31T07:34:09.222Z,17.10
2022-07-31T07:36:37.531Z,17.10
2022-07-31T07:40:31.989Z,17.05
2022-07-31T07:43:03.001Z,17.06
2022-07-31T07:45:33.026Z,16.99
2022-07-31T07:48:07.534Z,17.00
2022-07-31T07:50:55.883Z,16.98
2022-07-31T07:53:29.728Z,16.99
2022-07-31T07:56:16.708Z,17.02
2022-07-31T07:59:07.702Z,17.06
2022-07-31T08:02:02.487Z,17.11
2022-07-31T08:04:32.997Z,17.07
2022-07-31T08:07:00.725Z,17.07
2022-07-31T08:09:35.848Z,17.09
2022-07-31T08:12:34.442Z,17.12
2022-07-31T08:15:22.693Z,17.11
2022-07-31T08:18:07.485Z,17.13
2022-07-31T08:20:38.374Z,17.13
2022-07-31T08:23:31.466Z,17.11
2022-07-31T08:26:03.730Z,17.07
2022-07-31T08:28:31.276Z,17.09
2022-07-31T08:30:59.238Z,17.12
2022-07-31T08:33:27.085Z,17.09
2022-07-31T08:35:59.958Z,17.11
2022-07-31T08:38:28.948Z,17.14
2022-07-31T08:41:17.585Z,17.12
2022-07-31T08:44:00.348Z,17.13
2022-07-31T08:46:37.785Z,17.14
2022-07-31T08:49:07.938Z,17.11
2022-07-31T08:51:51.013Z,17.05
2022-07-31T08:54:46.371Z,16.99
2022-07-31T08:57:14.767Z,17.01
2022-07-31T08:59:53.558Z,17.05
2022-07-31T09:02:21.849Z,17.08
2022-07-31T09:05:21.827Z,17.08
2022-07-31T09:07:50.513Z,17.09
2022-07-31T09:10:28.910Z,17.11
2022-07-31T09:12:57.682Z,17.08
2022-07-31T09:15:31.210Z,17.07
2022-07-31T09:23:26.514Z,17.12
2022-07-31T09:25:58.143Z,17.07
2022-07-31T09:28:38.059Z,17.07
2022-07-31T09:31:09.846Z,17.09
2022-07-31T09:33:59.611Z,17.06
2022-07-31T09:37:04.434Z,17.04
2022-07-31T09:39:57.213Z,17.10
2022-07-31T09:42:48.564Z,17.14
2022-07-31T09:50:25.364Z,17.03
2022-07-31T09:53:02.941Z,17.09
2022-07-31T09:55:37.381Z,17.13
2022-07-31T09:58:04.945Z,17.09
2022-07-31T10:00:38.983Z,17.10
2022-07-31T10:03:07.867Z,17.11
2022-07-31T10:05:38.069Z,17.13
2022-07-31T10:08:06.553Z,17.17
2022-07-31T10:11:07.285Z,17.27
2022-07-31T10:23:11.285Z,17.48
2022-07-31T10:26:02.670Z,17.50
2022-07-31T10:28:33.523Z,17.54
2022-07-31T10:31:01.655Z,17.59
2022-07-31T10:33:45.373Z,17.62
2022-07-31T10:36:47.186Z,17.63
2022-07-31T10:40:34.225Z,17.68
2022-07-31T10:43:36.605Z,17.73
2022-07-31T10:46:33.307Z,17.62
2022-07-31T10:49:16.065Z,17.59
2022-07-31T10:52:10.066Z,17.55
2022-07-31T10:55:00.108Z,17.56
2022-07-31T10:58:15.914Z,17.50
2022-07-31T11:01:09.806Z,17.54
2022-07-31T11:03:46.384Z,17.48
2022-07-31T11:06:21.811Z,17.51
2022-07-31T11:08:54.341Z,17.50
2022-07-31T11:11:48.064Z,17.41
2022-07-31T11:14:38.871Z,17.38
2022-07-31T11:18:21.325Z,17.39
2022-07-31T11:20:32.750Z,17.48
2022-07-31T11:23:05.095Z,17.49
2022-07-31T11:25:36.482Z,17.50
2022-07-31T11:28:24.863Z,17.51
2022-07-31T11:31:06.289Z,17.58
2022-07-31T11:33:43.831Z,17.57
2022-07-31T11:36:14.972Z,17.59
2022-07-31T11:38:53.192Z,17.55
2022-07-31T11:41:29.214Z,17.54
2022-07-31T11:44:06.838Z,17.54
2022-07-31T11:46:38.158Z,17.54
2022-07-31T11:53:50.673Z,17.56
2022-07-31T11:56:27.647Z,17.61
2022-07-31T11:58:58.159Z,17.60
2022-07-31T12:01:29.550Z,17.64
2022-07-31T12:04:08.575Z,17.63
2022-07-31T12:06:40.352Z,17.66
2022-07-31T12:10:02.890Z,17.71
2022-07-31T12:12:03.265Z,17.70
2022-07-31T12:14:35.434Z,17.72
2022-07-31T12:17:23.573Z,17.73
2022-07-31T12:19:56.099Z,17.76
2022-07-31T12:22:26.128Z,17.80
2022-07-31T12:25:03.983Z,17.83
2022-07-31T12:27:42.110Z,17.84
2022-07-31T12:30:17.414Z,17.85
2022-07-31T12:32:48.662Z,17.80
2022-07-31T12:40:02.335Z,17.71
2022-07-31T12:42:40.683Z,17.66
2022-07-31T12:45:36.708Z,17.65
2022-07-31T12:48:05.848Z,17.64
2022-07-31T12:50:34.298Z,17.59
2022-07-31T12:53:04.487Z,17.54
2022-07-31T12:55:34.527Z,17.50
2022-07-31T12:58:06.026Z,17.54
2022-07-31T13:00:39.567Z,17.55
2022-07-31T13:03:09.670Z,17.54
2022-07-31T13:05:37.719Z,17.51
2022-07-31T13:08:08.959Z,17.50
2022-07-31T13:15:51.715Z,17.48
2022-07-31T13:18:20.450Z,17.45
2022-07-31T13:27:52.136Z,17.41
2022-07-31T13:30:28.095Z,17.41
2022-07-31T13:32:56.140Z,17.39
2022-07-31T13:35:27.813Z,17.34
2022-07-31T13:37:57.247Z,17.22
2022-07-31T13:40:44.467Z,17.14
2022-07-31T13:43:13.129Z,17.03
2022-07-31T13:45:40.684Z,16.99
2022-07-31T13:48:10.194Z,17.00
2022-07-31T13:55:20.800Z,17.05
2022-07-31T14:03:26.695Z,17.15
2022-07-31T14:10:33.170Z,17.14
2022-07-31T14:13:04.008Z,17.15
2022-07-31T14:15:32.622Z,17.12
2022-07-31T14:18:03.269Z,17.11
2022-07-31T14:21:16.486Z,17.12
2022-07-31T14:23:47.614Z,17.14
2022-07-31T14:31:20.428Z,17.04
2022-07-31T14:33:48.803Z,17.03
2022-07-31T14:36:16.305Z,17.02
2022-07-31T14:38:44.276Z,17.05
2022-07-31T14:41:12.070Z,17.05
2022-07-31T14:43:39.281Z,17.05
2022-07-31T14:46:07.078Z,17.08
2022-07-31T14:48:34.968Z,17.06
2022-07-31T14:51:02.107Z,17.04
2022-07-31T14:53:29.439Z,17.05
2022-07-31T14:55:56.901Z,17.09
2022-07-31T14:58:31.244Z,17.06
2022-07-31T15:01:02.610Z,17.08
2022-07-31T15:03:31.371Z,17.09
2022-07-31T15:06:39.983Z,17.05
2022-07-31T15:20:59.387Z,16.95
2022-07-31T15:23:36.018Z,16.92
2022-07-31T15:26:05.345Z,16.92
2022-07-31T15:28:34.690Z,16.89
2022-07-31T15:31:02.553Z,16.90
2022-07-31T15:33:30.221Z,16.91
2022-07-31T15:35:58.704Z,16.93
2022-07-31T15:38:27.287Z,16.93
2022-07-31T15:40:55.205Z,16.92
2022-07-31T15:43:23.381Z,16.94
2022-07-31T15:45:51.675Z,16.90
2022-07-31T15:48:19.312Z,16.90
2022-07-31T15:50:50.829Z,16.89
2022-07-31T15:53:29.992Z,16.89
2022-07-31T15:56:06.046Z,16.87
2022-07-31T15:58:33.951Z,16.84
2022-07-31T16:01:07.154Z,16.83
2022-07-31T16:03:50.715Z,16.81
2022-07-31T16:08:31.561Z,16.82
2022-07-31T16:19:12.126Z,16.81
2022-07-31T16:23:01.914Z,16.78
2022-07-31T16:25:35.060Z,16.77
2022-07-31T16:28:24.237Z,16.73
2022-07-31T16:30:52.129Z,16.75
2022-07-31T16:33:19.265Z,16.69
2022-07-31T16:35:47.116Z,16.72
2022-07-31T16:38:15.305Z,16.72
2022-07-31T16:49:39.030Z,16.73
2022-07-31T16:52:08.167Z,16.66
2022-07-31T16:55:02.474Z,16.63
2022-07-31T16:57:29.626Z,16.58
2022-07-31T16:59:58.221Z,16.60
2022-07-31T17:02:27.249Z,16.62
2022-07-31T17:04:55.389Z,16.60
2022-07-31T17:07:22.624Z,16.58
2022-07-31T17:09:49.842Z,16.58
2022-07-31T17:12:17.801Z,16.59
2022-07-31T17:14:44.868Z,16.62
2022-07-31T17:17:12.474Z,16.63
2022-07-31T17:20:15.001Z,16.63
2022-07-31T17:22:42.947Z,16.64
2022-07-31T17:25:11.733Z,16.66
2022-07-31T17:27:39.150Z,16.70
2022-07-31T17:30:10.969Z,16.73
2022-07-31T17:32:39.692Z,16.75
2022-07-31T17:39:58.044Z,16.79
2022-07-31T17:42:27.383Z,16.80
2022-07-31T17:44:58.957Z,16.82
2022-07-31T17:47:26.290Z,16.82
2022-07-31T17:49:53.617Z,16.84
2022-07-31T17:52:21.265Z,16.85
2022-07-31T17:54:49.011Z,16.86
2022-07-31T17:57:16.148Z,16.87
2022-07-31T17:59:43.934Z,16.86
2022-07-31T18:02:11.618Z,16.87
2022-07-31T18:04:41.880Z,16.88
2022-07-31T18:16:37.032Z,16.86
2022-07-31T18:19:15.358Z,16.89
2022-07-31T18:21:44.035Z,16.90
2022-07-31T18:24:12.146Z,16.89
2022-07-31T18:27:27.192Z,16.89
2022-07-31T18:44:52.199Z,16.89
2022-07-31T18:47:34.198Z,16.90
2022-07-31T18:59:07.559Z,16.91
2022-07-31T19:03:56.032Z,16.91
2022-07-31T19:06:25.427Z,16.89
2022-07-31T19:08:57.914Z,16.87
2022-07-31T19:11:35.181Z,16.86
2022-07-31T19:14:04.393Z,16.82
2022-07-31T19:18:27.914Z,16.84
2022-07-31T19:21:41.480Z,16.84
2022-07-31T19:24:10.882Z,16.88
2022-07-31T19:26:39.303Z,16.89
2022-07-31T19:29:15.574Z,16.88
2022-07-31T19:31:48.551Z,16.89
2022-07-31T19:34:17.508Z,16.89
2022-07-31T19:36:46.540Z,16.91
2022-07-31T19:39:16.926Z,16.91
2022-07-31T19:41:49.134Z,16.91
2022-07-31T19:44:34.381Z,16.93
2022-07-31T19:47:04.937Z,16.94
2022-07-31T19:49:38.137Z,16.94
2022-07-31T19:52:08.040Z,16.94
2022-07-31T19:54:37.430Z,16.95
2022-07-31T19:57:05.743Z,16.94
2022-07-31T19:59:34.492Z,16.95
2022-07-31T20:02:06.241Z,16.95
2022-07-31T20:04:36.693Z,16.95
2022-07-31T20:07:05.404Z,16.95
2022-07-31T20:09:45.328Z,16.94
2022-07-31T20:12:13.750Z,16.95
2022-07-31T20:15:52.563Z,16.94
2022-07-31T20:18:27.990Z,16.95
2022-07-31T20:20:59.785Z,16.96
2022-07-31T20:23:28.185Z,16.94
2022-07-31T20:25:55.485Z,16.95
2022-07-31T20:28:23.372Z,16.95
2022-07-31T20:30:50.827Z,16.95
2022-07-31T20:33:18.454Z,16.94
2022-07-31T20:35:48.456Z,16.93
2022-07-31T20:38:19.124Z,16.93
2022-07-31T20:40:53.775Z,16.93
2022-07-31T20:43:25.086Z,16.94
2022-07-31T20:45:56.986Z,16.94
2022-07-31T20:48:31.235Z,16.93
2022-07-31T20:51:04.651Z,16.93
2022-07-31T20:53:32.536Z,16.93
2022-07-31T20:55:59.866Z,16.94
2022-07-31T20:58:28.715Z,16.93
2022-07-31T21:00:56.326Z,16.92
2022-07-31T21:03:24.076Z,16.91
2022-07-31T21:05:51.593Z,16.90
2022-07-31T21:08:19.224Z,16.91
2022-07-31T21:10:46.432Z,16.90
2022-07-31T21:13:14.260Z,16.92
2022-07-31T21:15:47.634Z,16.91
2022-07-31T21:25:32.290Z,16.91
2022-07-31T21:28:00.401Z,16.90
2022-07-31T21:30:29.044Z,16.89
2022-07-31T21:32:56.554Z,16.88
2022-07-31T21:35:36.869Z,16.88
2022-07-31T21:38:10.301Z,16.88
2022-07-31T21:40:40.559Z,16.87
2022-07-31T21:43:09.712Z,16.88
2022-07-31T21:45:50.603Z,16.88
2022-07-31T21:48:25.851Z,16.87
2022-07-31T21:50:54.421Z,16.88
2022-07-31T21:53:23.542Z,16.88
2022-07-31T21:55:51.631Z,16.88
2022-07-31T21:58:19.225Z,16.87
2022-07-31T22:00:46.618Z,16.87
2022-07-31T22:03:14.244Z,16.86
2022-07-31T22:06:00.338Z,16.85
2022-07-31T22:08:28.835Z,16.85
2022-07-31T22:10:55.838Z,16.84
2022-07-31T22:13:22.980Z,16.84
2022-07-31T22:15:58.855Z,16.82
2022-07-31T22:18:34.210Z,16.80
2022-07-31T22:21:07.773Z,16.82
2022-07-31T22:23:36.136Z,16.81
2022-07-31T22:26:04.530Z,16.82
2022-07-31T22:28:33.422Z,16.81
2022-07-31T22:31:00.890Z,16.82
2022-07-31T22:33:28.449Z,16.81
2022-07-31T22:36:00.716Z,16.82
2022-07-31T22:38:31.057Z,16.83
2022-07-31T22:41:00.249Z,16.82
2022-07-31T22:44:13.117Z,16.83
2022-07-31T22:46:17.362Z,16.83
2022-07-31T22:48:45.780Z,16.81
2022-07-31T22:51:14.861Z,16.80
2022-07-31T22:53:48.998Z,16.80
2022-07-31T22:56:18.063Z,16.79
2022-07-31T22:58:45.664Z,16.79
2022-07-31T23:01:13.137Z,16.78
2022-07-31T23:03:40.194Z,16.78
2022-07-31T23:06:31.844Z,16.74
2022-07-31T23:08:55.530Z,16.76
2022-07-31T23:11:25.683Z,16.76
2022-07-31T23:13:53.137Z,16.75
2022-07-31T23:16:20.921Z,16.75
2022-07-31T23:18:49.917Z,16.76
2022-07-31T23:21:18.739Z,16.76
2022-07-31T23:23:48.483Z,16.74
2022-07-31T23:26:23.860Z,16.75
2022-07-31T23:28:53.289Z,16.75
2022-07-31T23:31:21.725Z,16.74
2022-07-31T23:33:50.051Z,16.72
2022-07-31T23:36:18.490Z,16.70
2022-07-31T23:38:46.298Z,16.70
2022-07-31T23:41:14.496Z,16.67
2022-07-31T23:43:41.935Z,16.67
2022-07-31T23:46:26.707Z,16.69
2022-07-31T23:48:54.970Z,16.66
2022-07-31T23:51:23.603Z,16.66
2022-07-31T23:53:51.393Z,16.67
2022-07-31T23:56:19.615Z,16.65
2022-07-31T23:58:47.613Z,16.66
